CheckWX is a tool to help pilots better visualize weather data.  It is not intended as a substitute for an official pre-flight weather briefing.

09:09:15 UTC

KLPR METAR
Lorain County Regional Airport
Lorain/Elyria, Ohio, USA
Current

16 mins ago

KLPR 260853Z AUTO 26017KT 10SM OVC011 01/M03 A2986 RMK AO2 SLP118 T00061033 53004 $
Observed
Jan-26 @ 08:53 UTC
Wind
  • 260° at 17 KTS
Visibility
10 SM
Flight Rules
MVFR
Cloud Levels
  • Overcast at 1,100' AGL
Temperature
C / 34°F
Dewpoint
-3°C / 27°F
Humidity
75%
Altimeter
29.86" Hg
Pressure
1011.22 hPa
Previous

1 hour ago

KLPR 260753Z AUTO 26012G22KT 10SM OVC012 01/M03 A2986 RMK AO2 SLP117 T00061033 $
Observed
Jan-26 @ 07:53 UTC
Wind
  • 260° at 12 KTS
  • Gusting to 22 KTS
Visibility
10 SM
Flight Rules
MVFR
Cloud Levels
  • Overcast at 1,200' AGL
Temperature
C / 34°F
Dewpoint
-3°C / 27°F
Humidity
75%
Altimeter
29.86" Hg
Pressure
1011.22 hPa
Previous

2 hours ago

KLPR 260653Z AUTO 25015KT 10SM OVC011 01/M03 A2985 RMK AO2 SLP114 T00061033 $
Observed
Jan-26 @ 06:53 UTC
Wind
  • 250° at 15 KTS
Visibility
10 SM
Flight Rules
MVFR
Cloud Levels
  • Overcast at 1,100' AGL
Temperature
C / 34°F
Dewpoint
-3°C / 27°F
Humidity
75%
Altimeter
29.85" Hg
Pressure
1010.82 hPa